sensor_id;sensor_type;location;lat;lon;timestamp;P1;durP1;ratioP1;P2;durP2;ratioP2
16837;SDS011;19510;54.486;9.046;2023-05-10T00:02:16;4.10;;;2.03;;
16837;SDS011;19510;54.486;9.046;2023-05-10T00:04:41;5.22;;;1.98;;
16837;SDS011;19510;54.486;9.046;2023-05-10T00:07:11;7.55;;;2.20;;
16837;SDS011;19510;54.486;9.046;2023-05-10T00:09:40;4.35;;;2.10;;
16837;SDS011;19510;54.486;9.046;2023-05-10T00:12:06;4.20;;;2.65;;
16837;SDS011;19510;54.486;9.046;2023-05-10T00:14:32;3.42;;;2.30;;
16837;SDS011;19510;54.486;9.046;2023-05-10T00:16:58;4.10;;;2.45;;
16837;SDS011;19510;54.486;9.046;2023-05-10T00:19:24;2.90;;;2.10;;
16837;SDS011;19510;54.486;9.046;2023-05-10T00:21:49;3.90;;;2.28;;
16837;SDS011;19510;54.486;9.046;2023-05-10T00:24:15;3.53;;;1.90;;
16837;SDS011;19510;54.486;9.046;2023-05-10T00:26:41;6.68;;;2.60;;
16837;SDS011;19510;54.486;9.046;2023-05-10T00:29:08;5.32;;;3.03;;
16837;SDS011;19510;54.486;9.046;2023-05-10T00:31:34;6.40;;;2.50;;
16837;SDS011;19510;54.486;9.046;2023-05-10T00:33:59;5.65;;;2.50;;
16837;SDS011;19510;54.486;9.046;2023-05-10T00:36:25;3.97;;;2.05;;
16837;SDS011;19510;54.486;9.046;2023-05-10T00:38:51;5.25;;;2.80;;
16837;SDS011;19510;54.486;9.046;2023-05-10T00:41:16;3.90;;;2.58;;
16837;SDS011;19510;54.486;9.046;2023-05-10T00:43:42;2.88;;;2.08;;
16837;SDS011;19510;54.486;9.046;2023-05-10T00:46:08;3.35;;;2.17;;
16837;SDS011;19510;54.486;9.046;2023-05-10T00:48:34;3.53;;;2.17;;
16837;SDS011;19510;54.486;9.046;2023-05-10T00:51:00;3.75;;;2.30;;
16837;SDS011;19510;54.486;9.046;2023-05-10T00:53:27;3.88;;;2.75;;
16837;SDS011;19510;54.486;9.046;2023-05-10T00:55:53;2.30;;;2.10;;
16837;SDS011;19510;54.486;9.046;2023-05-10T00:58:22;6.13;;;2.60;;
16837;SDS011;19510;54.486;9.046;2023-05-10T01:00:48;5.15;;;2.58;;
16837;SDS011;19510;54.486;9.046;2023-05-10T01:03:15;3.40;;;2.42;;
16837;SDS011;19510;54.486;9.046;2023-05-10T01:05:42;5.05;;;2.72;;
16837;SDS011;19510;54.486;9.046;2023-05-10T01:08:07;3.63;;;2.60;;
16837;SDS011;19510;54.486;9.046;2023-05-10T01:10:33;6.97;;;2.97;;
16837;SDS011;19510;54.486;9.046;2023-05-10T01:12:59;3.42;;;2.70;;
16837;SDS011;19510;54.486;9.046;2023-05-10T01:15:25;6.22;;;2.67;;
16837;SDS011;19510;54.486;9.046;2023-05-10T01:17:54;3.15;;;2.50;;
16837;SDS011;19510;54.486;9.046;2023-05-10T01:20:21;3.78;;;2.60;;
16837;SDS011;19510;54.486;9.046;2023-05-10T01:23:27;3.28;;;2.30;;
16837;SDS011;19510;54.486;9.046;2023-05-10T01:39:17;3.95;;;2.65;;
16837;SDS011;19510;54.486;9.046;2023-05-10T01:44:43;4.68;;;2.58;;
16837;SDS011;19510;54.486;9.046;2023-05-10T01:47:20;3.97;;;2.70;;
16837;SDS011;19510;54.486;9.046;2023-05-10T01:50:00;4.80;;;2.45;;
16837;SDS011;19510;54.486;9.046;2023-05-10T01:52:33;6.13;;;2.40;;
16837;SDS011;19510;54.486;9.046;2023-05-10T01:55:07;3.78;;;2.80;;
16837;SDS011;19510;54.486;9.046;2023-05-10T01:57:43;4.88;;;2.50;;
16837;SDS011;19510;54.486;9.046;2023-05-10T02:00:11;6.65;;;2.83;;
16837;SDS011;19510;54.486;9.046;2023-05-10T02:02:42;4.68;;;2.70;;
16837;SDS011;19510;54.486;9.046;2023-05-10T02:05:11;2.97;;;2.40;;
16837;SDS011;19510;54.486;9.046;2023-05-10T02:07:40;3.30;;;2.65;;
16837;SDS011;19510;54.486;9.046;2023-05-10T02:10:09;4.28;;;2.53;;
16837;SDS011;19510;54.486;9.046;2023-05-10T02:12:41;6.38;;;2.88;;
16837;SDS011;19510;54.486;9.046;2023-05-10T02:15:08;8.57;;;3.28;;
16837;SDS011;19510;54.486;9.046;2023-05-10T02:17:35;3.78;;;2.50;;
16837;SDS011;19510;54.486;9.046;2023-05-10T02:20:04;3.17;;;2.70;;
16837;SDS011;19510;54.486;9.046;2023-05-10T02:22:31;6.00;;;2.85;;
16837;SDS011;19510;54.486;9.046;2023-05-10T02:24:57;4.97;;;3.42;;
16837;SDS011;19510;54.486;9.046;2023-05-10T02:27:26;4.35;;;3.05;;
16837;SDS011;19510;54.486;9.046;2023-05-10T02:29:53;5.97;;;2.97;;
16837;SDS011;19510;54.486;9.046;2023-05-10T02:32:20;4.03;;;2.63;;
16837;SDS011;19510;54.486;9.046;2023-05-10T02:34:50;4.00;;;2.53;;
16837;SDS011;19510;54.486;9.046;2023-05-10T02:37:18;6.55;;;3.15;;
16837;SDS011;19510;54.486;9.046;2023-05-10T02:39:47;4.85;;;2.45;;
16837;SDS011;19510;54.486;9.046;2023-05-10T02:42:18;6.72;;;2.80;;
16837;SDS011;19510;54.486;9.046;2023-05-10T02:44:49;5.13;;;2.95;;
16837;SDS011;19510;54.486;9.046;2023-05-10T02:47:18;5.00;;;2.72;;
16837;SDS011;19510;54.486;9.046;2023-05-10T02:49:44;4.82;;;3.00;;
16837;SDS011;19510;54.486;9.046;2023-05-10T02:52:09;4.70;;;2.50;;
16837;SDS011;19510;54.486;9.046;2023-05-10T02:54:43;10.50;;;3.45;;
16837;SDS011;19510;54.486;9.046;2023-05-10T02:57:11;5.07;;;2.90;;
16837;SDS011;19510;54.486;9.046;2023-05-10T02:59:43;3.53;;;2.58;;
16837;SDS011;19510;54.486;9.046;2023-05-10T03:02:10;5.75;;;2.88;;
16837;SDS011;19510;54.486;9.046;2023-05-10T03:04:37;6.22;;;2.85;;
16837;SDS011;19510;54.486;9.046;2023-05-10T03:07:07;4.35;;;2.92;;
16837;SDS011;19510;54.486;9.046;2023-05-10T03:09:33;6.15;;;2.85;;
16837;SDS011;19510;54.486;9.046;2023-05-10T03:12:14;4.15;;;2.88;;
16837;SDS011;19510;54.486;9.046;2023-05-10T03:17:35;6.93;;;3.08;;
16837;SDS011;19510;54.486;9.046;2023-05-10T03:20:08;6.55;;;3.38;;
16837;SDS011;19510;54.486;9.046;2023-05-10T03:22:47;6.82;;;3.10;;
16837;SDS011;19510;54.486;9.046;2023-05-10T03:25:17;5.07;;;3.30;;
16837;SDS011;19510;54.486;9.046;2023-05-10T03:27:46;5.68;;;3.25;;
16837;SDS011;19510;54.486;9.046;2023-05-10T03:30:12;3.42;;;2.88;;
16837;SDS011;19510;54.486;9.046;2023-05-10T03:32:39;4.53;;;3.10;;
16837;SDS011;19510;54.486;9.046;2023-05-10T03:35:08;6.68;;;2.78;;
16837;SDS011;19510;54.486;9.046;2023-05-10T03:37:34;6.10;;;2.92;;
16837;SDS011;19510;54.486;9.046;2023-05-10T03:40:01;4.22;;;2.80;;
16837;SDS011;19510;54.486;9.046;2023-05-10T03:42:27;5.20;;;2.80;;
16837;SDS011;19510;54.486;9.046;2023-05-10T03:44:56;6.28;;;2.92;;
16837;SDS011;19510;54.486;9.046;2023-05-10T03:47:24;4.18;;;2.80;;
16837;SDS011;19510;54.486;9.046;2023-05-10T03:49:50;9.60;;;2.97;;
16837;SDS011;19510;54.486;9.046;2023-05-10T03:52:17;6.18;;;3.38;;
16837;SDS011;19510;54.486;9.046;2023-05-10T03:54:43;4.93;;;3.03;;
16837;SDS011;19510;54.486;9.046;2023-05-10T03:57:09;3.33;;;2.60;;
16837;SDS011;19510;54.486;9.046;2023-05-10T03:59:37;4.05;;;2.78;;
16837;SDS011;19510;54.486;9.046;2023-05-10T04:02:03;4.18;;;3.13;;
16837;SDS011;19510;54.486;9.046;2023-05-10T04:04:28;5.68;;;3.25;;
16837;SDS011;19510;54.486;9.046;2023-05-10T04:06:56;6.20;;;2.97;;
16837;SDS011;19510;54.486;9.046;2023-05-10T04:09:22;4.53;;;3.35;;
16837;SDS011;19510;54.486;9.046;2023-05-10T04:11:48;7.60;;;2.80;;
16837;SDS011;19510;54.486;9.046;2023-05-10T04:14:14;7.38;;;2.78;;
16837;SDS011;19510;54.486;9.046;2023-05-10T04:16:39;7.63;;;3.17;;
16837;SDS011;19510;54.486;9.046;2023-05-10T04:19:05;3.75;;;2.53;;
16837;SDS011;19510;54.486;9.046;2023-05-10T04:21:33;6.57;;;3.17;;
16837;SDS011;19510;54.486;9.046;2023-05-10T04:23:59;5.03;;;2.78;;
16837;SDS011;19510;54.486;9.046;2023-05-10T04:26:25;8.70;;;3.17;;
16837;SDS011;19510;54.486;9.046;2023-05-10T04:28:51;7.45;;;3.30;;
16837;SDS011;19510;54.486;9.046;2023-05-10T04:31:18;7.22;;;3.28;;
16837;SDS011;19510;54.486;9.046;2023-05-10T04:33:44;10.18;;;2.92;;
16837;SDS011;19510;54.486;9.046;2023-05-10T04:36:12;5.38;;;3.00;;
16837;SDS011;19510;54.486;9.046;2023-05-10T04:38:38;3.95;;;2.70;;
16837;SDS011;19510;54.486;9.046;2023-05-10T04:41:04;4.30;;;2.70;;
16837;SDS011;19510;54.486;9.046;2023-05-10T04:43:33;4.45;;;3.10;;
16837;SDS011;19510;54.486;9.046;2023-05-10T04:46:02;6.03;;;3.45;;
16837;SDS011;19510;54.486;9.046;2023-05-10T04:48:30;9.88;;;3.28;;
16837;SDS011;19510;54.486;9.046;2023-05-10T04:50:56;5.90;;;3.17;;
16837;SDS011;19510;54.486;9.046;2023-05-10T04:53:22;8.23;;;3.40;;
16837;SDS011;19510;54.486;9.046;2023-05-10T04:55:48;3.80;;;2.97;;
16837;SDS011;19510;54.486;9.046;2023-05-10T04:58:16;7.03;;;3.47;;
16837;SDS011;19510;54.486;9.046;2023-05-10T05:00:42;7.05;;;3.15;;
16837;SDS011;19510;54.486;9.046;2023-05-10T05:03:12;5.90;;;3.38;;
16837;SDS011;19510;54.486;9.046;2023-05-10T05:05:38;4.35;;;3.55;;
16837;SDS011;19510;54.486;9.046;2023-05-10T05:08:06;6.30;;;3.05;;
16837;SDS011;19510;54.486;9.046;2023-05-10T05:10:31;9.30;;;2.90;;
16837;SDS011;19510;54.486;9.046;2023-05-10T05:12:57;5.63;;;3.22;;
16837;SDS011;19510;54.486;9.046;2023-05-10T05:15:24;3.88;;;3.10;;
16837;SDS011;19510;54.486;9.046;2023-05-10T05:17:50;13.35;;;3.10;;
16837;SDS011;19510;54.486;9.046;2023-05-10T05:20:15;5.47;;;3.60;;
16837;SDS011;19510;54.486;9.046;2023-05-10T05:22:46;7.68;;;4.22;;
16837;SDS011;19510;54.486;9.046;2023-05-10T05:25:11;5.13;;;2.92;;
16837;SDS011;19510;54.486;9.046;2023-05-10T05:27:37;8.60;;;3.17;;
16837;SDS011;19510;54.486;9.046;2023-05-10T05:30:03;7.07;;;3.20;;
16837;SDS011;19510;54.486;9.046;2023-05-10T05:32:29;4.82;;;2.90;;
16837;SDS011;19510;54.486;9.046;2023-05-10T05:34:57;9.30;;;3.10;;
16837;SDS011;19510;54.486;9.046;2023-05-10T05:37:26;8.52;;;2.90;;
16837;SDS011;19510;54.486;9.046;2023-05-10T05:39:52;5.35;;;3.13;;
16837;SDS011;19510;54.486;9.046;2023-05-10T05:42:19;7.00;;;3.22;;
16837;SDS011;19510;54.486;9.046;2023-05-10T05:44:45;8.52;;;3.33;;
16837;SDS011;19510;54.486;9.046;2023-05-10T05:47:11;9.15;;;2.97;;
16837;SDS011;19510;54.486;9.046;2023-05-10T05:49:37;6.45;;;3.65;;
16837;SDS011;19510;54.486;9.046;2023-05-10T05:52:03;5.25;;;2.78;;
16837;SDS011;19510;54.486;9.046;2023-05-10T05:54:32;8.00;;;3.65;;
16837;SDS011;19510;54.486;9.046;2023-05-10T05:57:01;6.22;;;3.53;;
16837;SDS011;19510;54.486;9.046;2023-05-10T05:59:27;4.13;;;3.40;;
16837;SDS011;19510;54.486;9.046;2023-05-10T06:01:56;4.70;;;3.10;;
16837;SDS011;19510;54.486;9.046;2023-05-10T06:04:23;9.23;;;3.70;;
16837;SDS011;19510;54.486;9.046;2023-05-10T06:06:49;8.35;;;5.57;;
16837;SDS011;19510;54.486;9.046;2023-05-10T06:09:14;6.13;;;3.95;;
16837;SDS011;19510;54.486;9.046;2023-05-10T06:11:40;5.35;;;3.22;;
16837;SDS011;19510;54.486;9.046;2023-05-10T06:14:06;6.53;;;3.50;;
16837;SDS011;19510;54.486;9.046;2023-05-10T06:16:35;5.35;;;3.45;;
16837;SDS011;19510;54.486;9.046;2023-05-10T06:19:03;5.55;;;3.03;;
16837;SDS011;19510;54.486;9.046;2023-05-10T06:21:32;8.68;;;3.53;;
16837;SDS011;19510;54.486;9.046;2023-05-10T06:23:57;5.85;;;3.30;;
16837;SDS011;19510;54.486;9.046;2023-05-10T06:26:23;4.32;;;3.67;;
16837;SDS011;19510;54.486;9.046;2023-05-10T06:28:49;4.65;;;2.88;;
16837;SDS011;19510;54.486;9.046;2023-05-10T06:31:14;8.70;;;3.55;;
16837;SDS011;19510;54.486;9.046;2023-05-10T06:33:41;4.47;;;3.00;;
16837;SDS011;19510;54.486;9.046;2023-05-10T06:36:06;10.70;;;3.92;;
16837;SDS011;19510;54.486;9.046;2023-05-10T06:38:34;6.40;;;3.72;;
16837;SDS011;19510;54.486;9.046;2023-05-10T06:41:00;10.48;;;3.90;;
16837;SDS011;19510;54.486;9.046;2023-05-10T06:43:26;5.70;;;3.35;;
16837;SDS011;19510;54.486;9.046;2023-05-10T06:45:53;4.15;;;3.28;;
16837;SDS011;19510;54.486;9.046;2023-05-10T06:48:19;7.78;;;3.90;;
16837;SDS011;19510;54.486;9.046;2023-05-10T06:50:45;4.75;;;3.30;;
16837;SDS011;19510;54.486;9.046;2023-05-10T06:53:10;10.43;;;4.57;;
16837;SDS011;19510;54.486;9.046;2023-05-10T06:55:38;6.10;;;2.97;;
16837;SDS011;19510;54.486;9.046;2023-05-10T06:58:07;10.57;;;3.63;;
16837;SDS011;19510;54.486;9.046;2023-05-10T07:00:32;5.22;;;3.60;;
16837;SDS011;19510;54.486;9.046;2023-05-10T07:02:58;4.93;;;3.47;;
16837;SDS011;19510;54.486;9.046;2023-05-10T07:05:24;10.45;;;4.22;;
16837;SDS011;19510;54.486;9.046;2023-05-10T07:07:50;6.25;;;3.80;;
16837;SDS011;19510;54.486;9.046;2023-05-10T07:10:16;3.58;;;2.85;;
16837;SDS011;19510;54.486;9.046;2023-05-10T07:12:42;5.88;;;3.70;;
16837;SDS011;19510;54.486;9.046;2023-05-10T07:15:08;9.35;;;3.20;;
16837;SDS011;19510;54.486;9.046;2023-05-10T07:17:34;7.07;;;4.15;;
16837;SDS011;19510;54.486;9.046;2023-05-10T07:20:00;6.65;;;3.30;;
16837;SDS011;19510;54.486;9.046;2023-05-10T07:22:28;6.68;;;4.00;;
16837;SDS011;19510;54.486;9.046;2023-05-10T07:24:54;6.85;;;3.47;;
16837;SDS011;19510;54.486;9.046;2023-05-10T07:27:22;5.75;;;3.25;;
16837;SDS011;19510;54.486;9.046;2023-05-10T07:29:48;5.20;;;3.83;;
16837;SDS011;19510;54.486;9.046;2023-05-10T07:32:14;9.25;;;3.92;;
16837;SDS011;19510;54.486;9.046;2023-05-10T07:34:39;5.22;;;3.47;;
16837;SDS011;19510;54.486;9.046;2023-05-10T07:37:05;7.40;;;3.92;;
16837;SDS011;19510;54.486;9.046;2023-05-10T07:39:33;5.28;;;3.67;;
16837;SDS011;19510;54.486;9.046;2023-05-10T07:42:02;11.57;;;3.65;;
16837;SDS011;19510;54.486;9.046;2023-05-10T07:44:28;5.95;;;3.50;;
16837;SDS011;19510;54.486;9.046;2023-05-10T07:46:56;10.27;;;4.00;;
16837;SDS011;19510;54.486;9.046;2023-05-10T07:49:22;6.53;;;3.65;;
16837;SDS011;19510;54.486;9.046;2023-05-10T07:51:49;7.97;;;3.95;;
16837;SDS011;19510;54.486;9.046;2023-05-10T07:54:15;4.95;;;3.70;;
16837;SDS011;19510;54.486;9.046;2023-05-10T07:56:40;6.57;;;4.15;;
16837;SDS011;19510;54.486;9.046;2023-05-10T07:59:14;15.07;;;4.25;;
16837;SDS011;19510;54.486;9.046;2023-05-10T08:01:43;4.47;;;3.75;;
16837;SDS011;19510;54.486;9.046;2023-05-10T08:04:09;10.10;;;3.50;;
16837;SDS011;19510;54.486;9.046;2023-05-10T08:06:40;6.35;;;3.40;;
16837;SDS011;19510;54.486;9.046;2023-05-10T08:09:08;5.32;;;3.40;;
16837;SDS011;19510;54.486;9.046;2023-05-10T08:11:36;4.57;;;3.58;;
16837;SDS011;19510;54.486;9.046;2023-05-10T08:14:02;12.43;;;8.23;;
16837;SDS011;19510;54.486;9.046;2023-05-10T08:16:28;8.82;;;4.72;;
16837;SDS011;19510;54.486;9.046;2023-05-10T08:18:57;7.00;;;3.80;;
16837;SDS011;19510;54.486;9.046;2023-05-10T08:21:25;4.85;;;3.63;;
16837;SDS011;19510;54.486;9.046;2023-05-10T08:23:51;7.97;;;3.78;;
16837;SDS011;19510;54.486;9.046;2023-05-10T08:26:17;5.47;;;3.70;;
16837;SDS011;19510;54.486;9.046;2023-05-10T08:28:45;5.25;;;4.00;;
16837;SDS011;19510;54.486;9.046;2023-05-10T08:31:13;7.80;;;4.00;;
16837;SDS011;19510;54.486;9.046;2023-05-10T08:33:42;5.68;;;3.95;;
16837;SDS011;19510;54.486;9.046;2023-05-10T08:36:08;5.55;;;3.53;;
16837;SDS011;19510;54.486;9.046;2023-05-10T08:38:33;6.78;;;3.80;;
16837;SDS011;19510;54.486;9.046;2023-05-10T08:40:59;7.25;;;3.92;;
16837;SDS011;19510;54.486;9.046;2023-05-10T08:43:27;5.30;;;3.60;;
16837;SDS011;19510;54.486;9.046;2023-05-10T08:45:58;5.63;;;3.55;;
16837;SDS011;19510;54.486;9.046;2023-05-10T08:48:26;9.18;;;3.95;;
16837;SDS011;19510;54.486;9.046;2023-05-10T08:50:54;4.53;;;3.53;;
16837;SDS011;19510;54.486;9.046;2023-05-10T08:53:24;5.60;;;4.00;;
16837;SDS011;19510;54.486;9.046;2023-05-10T08:55:52;7.85;;;3.97;;
16837;SDS011;19510;54.486;9.046;2023-05-10T08:58:18;5.78;;;3.53;;
16837;SDS011;19510;54.486;9.046;2023-05-10T09:00:44;6.07;;;4.03;;
16837;SDS011;19510;54.486;9.046;2023-05-10T09:03:13;4.22;;;3.40;;
16837;SDS011;19510;54.486;9.046;2023-05-10T09:05:39;7.47;;;3.85;;
16837;SDS011;19510;54.486;9.046;2023-05-10T09:08:08;6.30;;;3.97;;
16837;SDS011;19510;54.486;9.046;2023-05-10T09:10:33;7.95;;;4.10;;
16837;SDS011;19510;54.486;9.046;2023-05-10T09:13:02;5.47;;;3.75;;
16837;SDS011;19510;54.486;9.046;2023-05-10T09:15:29;4.68;;;3.70;;
16837;SDS011;19510;54.486;9.046;2023-05-10T09:17:56;4.88;;;3.45;;
16837;SDS011;19510;54.486;9.046;2023-05-10T09:20:24;5.05;;;3.83;;
16837;SDS011;19510;54.486;9.046;2023-05-10T09:22:49;9.27;;;4.10;;
16837;SDS011;19510;54.486;9.046;2023-05-10T09:25:16;10.98;;;4.10;;
16837;SDS011;19510;54.486;9.046;2023-05-10T09:27:45;4.95;;;4.07;;
16837;SDS011;19510;54.486;9.046;2023-05-10T09:30:16;8.07;;;4.30;;
16837;SDS011;19510;54.486;9.046;2023-05-10T09:32:43;7.57;;;3.60;;
16837;SDS011;19510;54.486;9.046;2023-05-10T09:35:11;7.03;;;3.70;;
16837;SDS011;19510;54.486;9.046;2023-05-10T09:37:39;5.72;;;3.80;;
16837;SDS011;19510;54.486;9.046;2023-05-10T09:40:07;6.93;;;3.88;;
16837;SDS011;19510;54.486;9.046;2023-05-10T09:42:35;8.70;;;4.15;;
16837;SDS011;19510;54.486;9.046;2023-05-10T09:45:02;5.05;;;3.40;;
16837;SDS011;19510;54.486;9.046;2023-05-10T09:47:32;5.40;;;4.13;;
16837;SDS011;19510;54.486;9.046;2023-05-10T09:50:04;6.25;;;4.13;;
16837;SDS011;19510;54.486;9.046;2023-05-10T09:52:31;6.15;;;4.25;;
16837;SDS011;19510;54.486;9.046;2023-05-10T09:55:24;10.68;;;4.32;;
16837;SDS011;19510;54.486;9.046;2023-05-10T09:58:00;10.32;;;4.05;;
16837;SDS011;19510;54.486;9.046;2023-05-10T10:00:26;7.25;;;4.38;;
16837;SDS011;19510;54.486;9.046;2023-05-10T10:02:59;5.47;;;4.30;;
16837;SDS011;19510;54.486;9.046;2023-05-10T10:05:32;5.60;;;4.38;;
16837;SDS011;19510;54.486;9.046;2023-05-10T10:08:02;7.32;;;4.72;;
16837;SDS011;19510;54.486;9.046;2023-05-10T10:10:32;7.22;;;4.38;;
16837;SDS011;19510;54.486;9.046;2023-05-10T10:12:58;8.35;;;4.57;;
16837;SDS011;19510;54.486;9.046;2023-05-10T10:15:27;6.80;;;5.00;;
16837;SDS011;19510;54.486;9.046;2023-05-10T10:17:55;6.65;;;5.00;;
16837;SDS011;19510;54.486;9.046;2023-05-10T10:20:21;8.73;;;4.88;;
16837;SDS011;19510;54.486;9.046;2023-05-10T10:22:48;7.22;;;4.90;;
16837;SDS011;19510;54.486;9.046;2023-05-10T10:25:14;9.23;;;5.10;;
16837;SDS011;19510;54.486;9.046;2023-05-10T10:35:34;6.53;;;4.82;;
16837;SDS011;19510;54.486;9.046;2023-05-10T10:38:00;7.80;;;5.15;;
16837;SDS011;19510;54.486;9.046;2023-05-10T10:40:28;11.65;;;5.82;;
16837;SDS011;19510;54.486;9.046;2023-05-10T10:42:56;8.00;;;5.47;;
16837;SDS011;19510;54.486;9.046;2023-05-10T10:45:23;7.22;;;5.13;;
16837;SDS011;19510;54.486;9.046;2023-05-10T10:51:00;10.80;;;5.65;;
16837;SDS011;19510;54.486;9.046;2023-05-10T10:53:29;9.82;;;5.78;;
16837;SDS011;19510;54.486;9.046;2023-05-10T10:56:04;8.50;;;5.53;;
16837;SDS011;19510;54.486;9.046;2023-05-10T10:58:33;13.10;;;5.85;;
16837;SDS011;19510;54.486;9.046;2023-05-10T11:01:12;9.48;;;6.03;;
16837;SDS011;19510;54.486;9.046;2023-05-10T11:03:39;7.25;;;5.18;;
16837;SDS011;19510;54.486;9.046;2023-05-10T11:06:06;10.10;;;6.07;;
16837;SDS011;19510;54.486;9.046;2023-05-10T11:08:34;8.90;;;5.60;;
16837;SDS011;19510;54.486;9.046;2023-05-10T11:11:07;10.00;;;5.95;;
16837;SDS011;19510;54.486;9.046;2023-05-10T11:15:58;8.60;;;5.88;;
16837;SDS011;19510;54.486;9.046;2023-05-10T11:18:36;9.40;;;6.25;;
16837;SDS011;19510;54.486;9.046;2023-05-10T11:21:04;9.85;;;6.55;;
16837;SDS011;19510;54.486;9.046;2023-05-10T11:26:10;8.77;;;6.32;;
16837;SDS011;19510;54.486;9.046;2023-05-10T11:28:48;8.63;;;5.97;;
16837;SDS011;19510;54.486;9.046;2023-05-10T11:31:17;9.73;;;6.65;;
16837;SDS011;19510;54.486;9.046;2023-05-10T11:33:47;10.30;;;7.05;;
16837;SDS011;19510;54.486;9.046;2023-05-10T11:36:18;10.10;;;6.88;;
16837;SDS011;19510;54.486;9.046;2023-05-10T11:38:45;11.80;;;7.28;;
16837;SDS011;19510;54.486;9.046;2023-05-10T11:41:12;11.65;;;7.57;;
16837;SDS011;19510;54.486;9.046;2023-05-10T11:43:39;10.48;;;7.38;;
16837;SDS011;19510;54.486;9.046;2023-05-10T11:46:10;13.65;;;7.75;;
16837;SDS011;19510;54.486;9.046;2023-05-10T11:48:44;9.20;;;6.80;;
16837;SDS011;19510;54.486;9.046;2023-05-10T11:51:10;10.23;;;7.13;;
16837;SDS011;19510;54.486;9.046;2023-05-10T11:53:36;17.10;;;7.85;;
16837;SDS011;19510;54.486;9.046;2023-05-10T11:56:11;10.27;;;6.95;;
16837;SDS011;19510;54.486;9.046;2023-05-10T11:58:37;10.32;;;7.45;;
16837;SDS011;19510;54.486;9.046;2023-05-10T12:01:06;11.20;;;7.97;;
16837;SDS011;19510;54.486;9.046;2023-05-10T12:03:34;15.27;;;7.78;;
16837;SDS011;19510;54.486;9.046;2023-05-10T12:06:04;14.27;;;8.20;;
16837;SDS011;19510;54.486;9.046;2023-05-10T12:08:32;11.82;;;7.70;;
16837;SDS011;19510;54.486;9.046;2023-05-10T12:11:07;10.82;;;7.40;;
16837;SDS011;19510;54.486;9.046;2023-05-10T12:13:39;12.57;;;7.43;;
16837;SDS011;19510;54.486;9.046;2023-05-10T12:16:18;11.00;;;7.10;;
16837;SDS011;19510;54.486;9.046;2023-05-10T12:18:53;12.73;;;7.72;;
16837;SDS011;19510;54.486;9.046;2023-05-10T12:21:21;11.32;;;7.40;;
16837;SDS011;19510;54.486;9.046;2023-05-10T12:23:50;13.18;;;7.85;;
16837;SDS011;19510;54.486;9.046;2023-05-10T12:26:22;10.82;;;7.35;;
16837;SDS011;19510;54.486;9.046;2023-05-10T12:28:49;10.57;;;7.63;;
16837;SDS011;19510;54.486;9.046;2023-05-10T12:31:15;10.30;;;7.22;;
16837;SDS011;19510;54.486;9.046;2023-05-10T12:33:42;12.43;;;8.25;;
16837;SDS011;19510;54.486;9.046;2023-05-10T12:36:09;12.13;;;8.70;;
16837;SDS011;19510;54.486;9.046;2023-05-10T12:38:37;14.30;;;8.50;;
16837;SDS011;19510;54.486;9.046;2023-05-10T12:41:10;10.05;;;7.97;;
16837;SDS011;19510;54.486;9.046;2023-05-10T12:43:46;10.13;;;7.80;;
16837;SDS011;19510;54.486;9.046;2023-05-10T12:46:12;13.70;;;8.70;;
16837;SDS011;19510;54.486;9.046;2023-05-10T12:48:41;11.65;;;7.80;;
16837;SDS011;19510;54.486;9.046;2023-05-10T12:51:10;11.88;;;8.23;;
16837;SDS011;19510;54.486;9.046;2023-05-10T12:53:40;12.90;;;7.88;;
16837;SDS011;19510;54.486;9.046;2023-05-10T12:56:06;19.02;;;7.95;;
16837;SDS011;19510;54.486;9.046;2023-05-10T12:58:32;11.70;;;8.38;;
16837;SDS011;19510;54.486;9.046;2023-05-10T13:00:59;9.90;;;7.50;;
16837;SDS011;19510;54.486;9.046;2023-05-10T13:03:25;19.83;;;13.00;;
16837;SDS011;19510;54.486;9.046;2023-05-10T13:05:50;13.70;;;8.23;;
16837;SDS011;19510;54.486;9.046;2023-05-10T13:08:18;9.98;;;7.22;;
16837;SDS011;19510;54.486;9.046;2023-05-10T13:10:44;15.63;;;9.98;;
16837;SDS011;19510;54.486;9.046;2023-05-10T13:13:12;10.80;;;7.85;;
16837;SDS011;19510;54.486;9.046;2023-05-10T13:15:42;13.38;;;8.48;;
16837;SDS011;19510;54.486;9.046;2023-05-10T13:18:09;10.35;;;7.60;;
16837;SDS011;19510;54.486;9.046;2023-05-10T13:20:35;10.88;;;7.90;;
16837;SDS011;19510;54.486;9.046;2023-05-10T13:23:04;15.10;;;7.88;;
16837;SDS011;19510;54.486;9.046;2023-05-10T13:25:30;12.40;;;8.13;;
16837;SDS011;19510;54.486;9.046;2023-05-10T13:27:55;12.85;;;8.77;;
16837;SDS011;19510;54.486;9.046;2023-05-10T13:30:21;13.88;;;9.15;;
16837;SDS011;19510;54.486;9.046;2023-05-10T13:32:48;13.00;;;8.43;;
16837;SDS011;19510;54.486;9.046;2023-05-10T13:35:17;10.48;;;7.63;;
16837;SDS011;19510;54.486;9.046;2023-05-10T13:37:43;15.95;;;9.23;;
16837;SDS011;19510;54.486;9.046;2023-05-10T13:40:09;16.10;;;9.73;;
16837;SDS011;19510;54.486;9.046;2023-05-10T13:42:35;13.57;;;9.55;;
16837;SDS011;19510;54.486;9.046;2023-05-10T13:45:01;19.77;;;8.55;;
16837;SDS011;19510;54.486;9.046;2023-05-10T13:47:27;15.23;;;9.93;;
16837;SDS011;19510;54.486;9.046;2023-05-10T13:49:53;13.05;;;9.75;;
16837;SDS011;19510;54.486;9.046;2023-05-10T13:52:19;14.15;;;9.30;;
16837;SDS011;19510;54.486;9.046;2023-05-10T13:54:46;15.05;;;8.98;;
16837;SDS011;19510;54.486;9.046;2023-05-10T13:57:12;16.13;;;9.57;;
16837;SDS011;19510;54.486;9.046;2023-05-10T13:59:39;12.50;;;8.88;;
16837;SDS011;19510;54.486;9.046;2023-05-10T14:02:04;9.88;;;7.45;;
16837;SDS011;19510;54.486;9.046;2023-05-10T14:04:32;8.20;;;6.10;;
16837;SDS011;19510;54.486;9.046;2023-05-10T14:07:01;5.50;;;4.15;;
16837;SDS011;19510;54.486;9.046;2023-05-10T14:09:29;7.47;;;5.43;;
16837;SDS011;19510;54.486;9.046;2023-05-10T14:11:55;7.15;;;5.30;;
16837;SDS011;19510;54.486;9.046;2023-05-10T14:14:23;6.78;;;5.45;;
16837;SDS011;19510;54.486;9.046;2023-05-10T14:16:49;6.00;;;4.72;;
16837;SDS011;19510;54.486;9.046;2023-05-10T14:19:15;6.80;;;5.63;;
16837;SDS011;19510;54.486;9.046;2023-05-10T14:21:41;6.38;;;5.15;;
16837;SDS011;19510;54.486;9.046;2023-05-10T14:24:09;6.88;;;5.35;;
16837;SDS011;19510;54.486;9.046;2023-05-10T14:26:35;7.20;;;5.75;;
16837;SDS011;19510;54.486;9.046;2023-05-10T14:29:01;7.35;;;5.55;;
16837;SDS011;19510;54.486;9.046;2023-05-10T14:31:27;6.50;;;5.32;;
16837;SDS011;19510;54.486;9.046;2023-05-10T14:33:55;7.30;;;5.35;;
16837;SDS011;19510;54.486;9.046;2023-05-10T14:36:21;7.05;;;5.30;;
16837;SDS011;19510;54.486;9.046;2023-05-10T14:38:47;7.18;;;5.32;;
16837;SDS011;19510;54.486;9.046;2023-05-10T14:41:15;7.20;;;5.60;;
16837;SDS011;19510;54.486;9.046;2023-05-10T14:43:42;6.28;;;5.03;;
16837;SDS011;19510;54.486;9.046;2023-05-10T14:46:13;6.90;;;5.28;;
16837;SDS011;19510;54.486;9.046;2023-05-10T14:48:38;7.40;;;5.28;;
16837;SDS011;19510;54.486;9.046;2023-05-10T14:51:07;6.25;;;5.20;;
16837;SDS011;19510;54.486;9.046;2023-05-10T14:53:32;8.75;;;5.50;;
16837;SDS011;19510;54.486;9.046;2023-05-10T14:55:58;5.95;;;4.63;;
16837;SDS011;19510;54.486;9.046;2023-05-10T14:58:26;6.88;;;3.67;;
16837;SDS011;19510;54.486;9.046;2023-05-10T15:00:52;5.63;;;3.97;;
16837;SDS011;19510;54.486;9.046;2023-05-10T15:03:17;3.63;;;3.17;;
16837;SDS011;19510;54.486;9.046;2023-05-10T15:05:46;6.65;;;3.30;;
16837;SDS011;19510;54.486;9.046;2023-05-10T15:08:12;3.05;;;2.75;;
16837;SDS011;19510;54.486;9.046;2023-05-10T15:10:38;2.63;;;2.42;;
16837;SDS011;19510;54.486;9.046;2023-05-10T15:13:07;3.17;;;2.25;;
16837;SDS011;19510;54.486;9.046;2023-05-10T15:15:35;2.83;;;2.22;;
16837;SDS011;19510;54.486;9.046;2023-05-10T15:18:09;3.47;;;2.20;;
16837;SDS011;19510;54.486;9.046;2023-05-10T15:20:35;2.28;;;2.05;;
16837;SDS011;19510;54.486;9.046;2023-05-10T15:23:00;2.20;;;1.85;;
16837;SDS011;19510;54.486;9.046;2023-05-10T15:25:26;2.40;;;1.80;;